createdAt,value
2018-12-09T00:02:12.371Z,97928.19
2018-12-09T00:04:42.623Z,97921.70
2018-12-09T00:07:12.818Z,97912.80
2018-12-09T00:09:43.005Z,97900.44
2018-12-09T00:12:13.173Z,97898.16
2018-12-09T00:14:43.409Z,97891.88
2018-12-09T00:17:13.724Z,97889.06
2018-12-09T00:19:44.014Z,97885.83
2018-12-09T00:22:14.479Z,97878.39
2018-12-09T00:24:44.699Z,97877.20
2018-12-09T00:27:15.013Z,97869.94
2018-12-09T00:29:45.449Z,97872.58
2018-12-09T00:32:19.448Z,97877.99
2018-12-09T00:34:49.769Z,97873.17
2018-12-09T00:37:20.089Z,97869.13
2018-12-09T00:39:50.219Z,97864.61
2018-12-09T00:42:20.429Z,97850.67
2018-12-09T00:44:50.658Z,97839.34
2018-12-09T00:47:20.793Z,97833.88
2018-12-09T00:49:50.983Z,97824.59
2018-12-09T00:52:21.119Z,97824.90
2018-12-09T00:54:51.225Z,97814.50
2018-12-09T00:57:21.346Z,97811.08
2018-12-09T00:59:51.320Z,97806.97
2018-12-09T01:02:21.476Z,97803.51
2018-12-09T01:04:51.588Z,97801.71
2018-12-09T01:07:21.560Z,97792.36
2018-12-09T01:09:51.635Z,97786.27
2018-12-09T01:12:21.605Z,97777.66
2018-12-09T01:14:51.540Z,97770.13
2018-12-09T01:17:21.460Z,97759.23
2018-12-09T01:19:51.403Z,97752.59
2018-12-09T01:22:21.855Z,97742.90
2018-12-09T01:24:51.825Z,97734.28
2018-12-09T01:27:21.835Z,97736.45
2018-12-09T01:29:52.267Z,97725.16
2018-12-09T01:32:22.790Z,97721.97
2018-12-09T01:34:52.766Z,97726.12
2018-12-09T01:37:22.716Z,97723.42
2018-12-09T01:39:52.896Z,97710.12
2018-12-09T01:42:23.080Z,97701.15
2018-12-09T01:44:52.960Z,97691.02
2018-12-09T01:47:22.926Z,97687.34
2018-12-09T01:49:53.406Z,97688.45
2018-12-09T01:52:23.310Z,97676.95
2018-12-09T01:54:53.124Z,97669.14
2018-12-09T01:57:23.175Z,97662.03
2018-12-09T01:59:53.565Z,97663.62
2018-12-09T02:02:23.486Z,97651.16
2018-12-09T02:04:53.493Z,97641.28
2018-12-09T02:07:23.466Z,97628.78
2018-12-09T02:09:53.836Z,97616.58
2018-12-09T02:12:23.878Z,97614.41
2018-12-09T02:14:53.915Z,97607.41
2018-12-09T02:17:23.800Z,97606.81
2018-12-09T02:19:54.315Z,97605.72
2018-12-09T02:22:24.314Z,97587.75
2018-12-09T02:24:54.335Z,97581.01
2018-12-09T02:27:24.356Z,97573.83
2018-12-09T02:29:54.676Z,97572.22
2018-12-09T02:32:24.580Z,97570.73
2018-12-09T02:34:54.495Z,97559.91
2018-12-09T02:37:24.411Z,97550.53
2018-12-09T02:39:54.436Z,97540.55
2018-12-09T02:42:24.462Z,97540.33
2018-12-09T02:44:54.658Z,97529.12
2018-12-09T02:47:24.585Z,97524.08
2018-12-09T02:49:54.596Z,97526.92
2018-12-09T02:52:24.612Z,97523.25
2018-12-09T02:54:54.930Z,97526.97
2018-12-09T02:57:24.926Z,97515.37
2018-12-09T02:59:54.866Z,97511.21
2018-12-09T03:02:24.877Z,97510.44
2018-12-09T03:04:54.896Z,97503.00
2018-12-09T03:07:24.867Z,97501.91
2018-12-09T03:09:54.810Z,97484.97
2018-12-09T03:12:24.836Z,97473.95
2018-12-09T03:14:54.847Z,97465.30
2018-12-09T03:17:24.854Z,97468.69
2018-12-09T03:19:54.885Z,97462.43
2018-12-09T03:22:24.897Z,97458.27
2018-12-09T03:24:55.015Z,97449.94
2018-12-09T03:27:25.027Z,97443.20
2018-12-09T03:29:55.045Z,97439.64
2018-12-09T03:32:25.069Z,97437.08
2018-12-09T03:34:55.178Z,97423.41
2018-12-09T03:37:25.090Z,97415.80
2018-12-09T03:39:55.010Z,97413.62
2018-12-09T03:42:24.964Z,97406.76
2018-12-09T03:44:54.924Z,97402.75
2018-12-09T03:47:24.949Z,97392.43
2018-12-09T03:49:54.946Z,97388.59
2018-12-09T03:52:25.289Z,97383.00
2018-12-09T03:54:55.400Z,97370.13
2018-12-09T03:57:25.316Z,97352.91
2018-12-09T03:59:55.323Z,97342.60
2018-12-09T04:02:25.347Z,97340.44
2018-12-09T04:04:55.369Z,97342.20
2018-12-09T04:07:25.275Z,97335.48
2018-12-09T04:09:55.279Z,97329.14
2018-12-09T04:12:25.307Z,97334.00
2018-12-09T04:14:55.258Z,97324.21
2018-12-09T04:17:25.229Z,97312.81
2018-12-09T04:19:55.131Z,97312.55
2018-12-09T04:22:25.154Z,97306.58
2018-12-09T04:24:55.374Z,97300.17
2018-12-09T04:27:25.396Z,97293.77
2018-12-09T04:29:55.302Z,97292.06
2018-12-09T04:32:25.328Z,97291.80
2018-12-09T04:34:55.536Z,97279.67
2018-12-09T04:37:25.635Z,97279.80
2018-12-09T04:39:55.496Z,97264.83
2018-12-09T04:42:25.486Z,97264.89
2018-12-09T04:44:55.506Z,97261.47
2018-12-09T04:47:25.451Z,97262.88
2018-12-09T04:49:55.539Z,97262.13
2018-12-09T04:52:25.845Z,97250.47
2018-12-09T04:54:55.876Z,97254.80
2018-12-09T04:57:25.799Z,97246.23
2018-12-09T05:02:47.052Z,97242.24
2018-12-09T05:05:17.066Z,97243.52
2018-12-09T05:07:47.038Z,97247.16
2018-12-09T05:10:16.965Z,97239.53
2018-12-09T05:12:46.900Z,97242.20
2018-12-09T05:15:16.847Z,97236.70
2018-12-09T05:17:46.720Z,97232.52
2018-12-09T05:20:16.761Z,97232.47
2018-12-09T05:22:47.036Z,97228.90
2018-12-09T05:25:17.356Z,97235.89
2018-12-09T05:27:47.465Z,97228.78
2018-12-09T05:30:17.487Z,97227.67
2018-12-09T05:32:47.507Z,97229.63
2018-12-09T05:35:17.440Z,97226.27
2018-12-09T05:37:47.631Z,97222.94
2018-12-09T05:40:17.607Z,97220.44
2018-12-09T05:42:47.765Z,97222.16
2018-12-09T05:45:17.788Z,97203.92
2018-12-09T05:47:47.716Z,97211.33
2018-12-09T05:50:17.705Z,97209.58
2018-12-09T05:52:47.636Z,97208.36
2018-12-09T05:55:17.747Z,97203.77
2018-12-09T05:57:48.041Z,97199.03
2018-12-09T06:00:17.957Z,97201.80
2018-12-09T06:02:56.965Z,97198.41
2018-12-09T06:05:26.818Z,97190.31
2018-12-09T06:07:56.837Z,97194.61
2018-12-09T06:10:26.848Z,97184.12
2018-12-09T06:12:56.856Z,97188.45
2018-12-09T06:15:26.877Z,97188.93
2018-12-09T06:17:57.307Z,97190.02
2018-12-09T06:20:27.196Z,97180.74
2018-12-09T06:22:57.146Z,97175.89
2018-12-09T06:25:27.241Z,97180.74
2018-12-09T06:28:04.026Z,97181.12
2018-12-09T06:30:34.037Z,97183.69
2018-12-09T06:33:04.056Z,97184.14
2018-12-09T06:35:33.967Z,97173.19
2018-12-09T06:38:03.889Z,97176.56
2018-12-09T06:40:33.850Z,97175.41
2018-12-09T06:43:03.800Z,97177.48
2018-12-09T06:45:33.711Z,97168.98
2018-12-09T06:48:03.649Z,97175.91
2018-12-09T06:50:33.545Z,97174.28
2018-12-09T06:53:03.515Z,97175.08
2018-12-09T06:55:33.475Z,97174.34
2018-12-09T06:58:03.361Z,97171.32
2018-12-09T07:00:33.407Z,97181.36
2018-12-09T07:03:03.573Z,97179.00
2018-12-09T07:05:33.641Z,97176.62
2018-12-09T07:08:03.526Z,97183.10
2018-12-09T07:10:33.504Z,97184.78
2018-12-09T07:13:03.776Z,97188.34
2018-12-09T07:15:33.807Z,97181.58
2018-12-09T07:18:03.927Z,97188.75
2018-12-09T07:20:33.856Z,97189.05
2018-12-09T07:23:03.867Z,97191.13
2018-12-09T07:25:34.060Z,97196.46
2018-12-09T07:28:03.977Z,97184.77
2018-12-09T07:30:34.121Z,97179.12
2018-12-09T07:33:04.028Z,97197.45
2018-12-09T07:35:34.343Z,97180.02
2018-12-09T07:38:04.521Z,97183.02
2018-12-09T07:40:34.621Z,97167.30
2018-12-09T07:43:04.420Z,97188.72
2018-12-09T07:45:34.795Z,97178.38
2018-12-09T07:48:04.871Z,97193.11
2018-12-09T07:50:34.847Z,97180.26
2018-12-09T07:53:04.857Z,97190.29
2018-12-09T07:55:34.910Z,97201.81
2018-12-09T07:58:04.911Z,97196.96
2018-12-09T08:00:34.971Z,97210.26
2018-12-09T08:03:06.087Z,97206.91
2018-12-09T08:05:36.257Z,97204.28
2018-12-09T08:08:06.377Z,97200.08
2018-12-09T08:10:36.322Z,97212.33
2018-12-09T08:13:06.293Z,97208.12
2018-12-09T08:15:36.316Z,97217.71
2018-12-09T08:18:06.547Z,97220.63
2018-12-09T08:20:36.467Z,97219.16
2018-12-09T08:23:06.461Z,97216.89
2018-12-09T08:25:36.483Z,97217.97
2018-12-09T08:28:06.710Z,97222.77
2018-12-09T08:30:36.711Z,97221.72
2018-12-09T08:33:06.947Z,97232.21
2018-12-09T08:35:36.947Z,97229.53
2018-12-09T08:38:06.989Z,97231.86
2018-12-09T08:40:37.080Z,97239.32
2018-12-09T08:43:07.084Z,97241.06
2018-12-09T08:45:37.129Z,97245.40
2018-12-09T08:48:07.440Z,97244.41
2018-12-09T08:50:37.460Z,97252.53
2018-12-09T08:53:07.579Z,97248.62
2018-12-09T08:55:37.596Z,97254.16
2018-12-09T08:58:07.526Z,97248.57
2018-12-09T09:00:37.512Z,97253.17
2018-12-09T09:03:07.774Z,97249.91
2018-12-09T09:05:37.899Z,97246.00
2018-12-09T09:08:07.976Z,97252.28
2018-12-09T09:10:37.965Z,97254.45
2018-12-09T09:13:07.906Z,97258.31
2018-12-09T09:15:37.711Z,97259.05
2018-12-09T09:18:07.727Z,97254.94
2018-12-09T09:20:37.636Z,97259.83
2018-12-09T09:23:07.571Z,97250.23
2018-12-09T09:25:37.489Z,97252.16
2018-12-09T09:28:07.409Z,97242.56
2018-12-09T09:30:43.980Z,97241.86
2018-12-09T09:33:13.926Z,97254.59
2018-12-09T09:35:43.820Z,97247.48
2018-12-09T09:38:14.091Z,97249.17
2018-12-09T09:40:44.115Z,97262.67
2018-12-09T09:43:14.069Z,97251.59
2018-12-09T09:45:44.054Z,97251.94
2018-12-09T09:48:14.067Z,97251.04
2018-12-09T09:50:44.041Z,97249.32
2018-12-09T09:53:13.970Z,97236.34
2018-12-09T09:55:44.106Z,97259.57
2018-12-09T09:58:14.157Z,97249.45
2018-12-09T10:00:44.302Z,97255.27
2018-12-09T10:03:14.348Z,97261.28
2018-12-09T10:05:44.365Z,97258.39
2018-12-09T10:08:14.278Z,97256.31
2018-12-09T10:10:44.343Z,97269.70
2018-12-09T10:13:20.779Z,97250.52
2018-12-09T10:15:50.764Z,97259.33
2018-12-09T10:18:20.683Z,97277.50
2018-12-09T10:20:50.640Z,97257.58
2018-12-09T10:23:20.669Z,97266.86
2018-12-09T10:25:50.636Z,97271.87
2018-12-09T10:28:20.729Z,97253.44
2018-12-09T10:30:50.656Z,97250.38
2018-12-09T10:33:20.674Z,97261.70
2018-12-09T10:35:50.609Z,97256.98
2018-12-09T10:38:20.818Z,97277.06
2018-12-09T10:40:50.836Z,97244.09
2018-12-09T10:43:21.060Z,97253.55
2018-12-09T10:45:51.083Z,97254.08
2018-12-09T10:48:21.826Z,97264.14
2018-12-09T10:50:51.817Z,97260.19
2018-12-09T10:53:21.866Z,97256.16
2018-12-09T10:55:51.776Z,97263.20
2018-12-09T10:58:21.665Z,97250.23
2018-12-09T11:00:55.326Z,97258.69
2018-12-09T11:03:25.367Z,97275.02
2018-12-09T11:05:55.282Z,97253.46
2018-12-09T11:08:25.257Z,97258.45
2018-12-09T11:10:55.207Z,97252.47
2018-12-09T11:13:25.215Z,97252.89
2018-12-09T11:15:55.341Z,97255.11
2018-12-09T11:18:25.367Z,97259.46
2018-12-09T11:20:55.297Z,97259.60
2018-12-09T11:23:25.196Z,97246.73
2018-12-09T11:25:55.302Z,97254.24
2018-12-09T11:28:25.327Z,97267.12
2018-12-09T11:30:55.281Z,97242.78
2018-12-09T11:33:25.186Z,97256.52
2018-12-09T11:35:55.176Z,97259.02
2018-12-09T11:38:25.187Z,97267.06
2018-12-09T11:40:55.111Z,97265.41
2018-12-09T11:43:28.343Z,97265.13
2018-12-09T11:45:58.321Z,97266.86
2018-12-09T11:48:28.366Z,97271.94
2018-12-09T11:50:58.323Z,97260.09
2018-12-09T11:53:28.398Z,97276.30
2018-12-09T11:55:58.470Z,97278.69
2018-12-09T11:58:29.166Z,97271.27
2018-12-09T12:00:59.106Z,97272.80
2018-12-09T12:03:29.101Z,97276.83
2018-12-09T12:05:59.090Z,97293.88
2018-12-09T12:08:29.186Z,97287.30
2018-12-09T12:10:59.063Z,97290.11
2018-12-09T12:13:29.069Z,97290.75
2018-12-09T12:15:59.201Z,97290.77
2018-12-09T12:18:29.220Z,97308.10
2018-12-09T12:20:59.747Z,97299.18
2018-12-09T12:23:29.907Z,97300.86
2018-12-09T12:26:00.382Z,97313.22
2018-12-09T12:28:30.383Z,97301.50
2018-12-09T12:31:00.732Z,97328.81
2018-12-09T12:33:30.691Z,97318.50
2018-12-09T12:36:00.794Z,97312.92
2018-12-09T12:38:31.044Z,97323.13
2018-12-09T12:41:00.992Z,97314.73
2018-12-09T12:43:31.118Z,97324.09
2018-12-09T12:46:01.338Z,97340.34
2018-12-09T12:48:31.545Z,97323.34
2018-12-09T12:51:01.516Z,97323.92
2018-12-09T12:53:32.009Z,97324.02
2018-12-09T12:56:02.182Z,97328.33
2018-12-09T12:58:32.338Z,97329.30
2018-12-09T13:01:02.471Z,97339.73
2018-12-09T13:03:34.078Z,97340.27
2018-12-09T13:06:04.568Z,97344.09
2018-12-09T13:08:35.482Z,97342.49
2018-12-09T13:11:05.796Z,97353.84
2018-12-09T13:13:35.784Z,97345.33
2018-12-09T13:16:05.761Z,97348.48
2018-12-09T13:18:35.722Z,97352.66
2018-12-09T13:21:05.640Z,97357.63
2018-12-09T13:23:35.755Z,97374.76
2018-12-09T13:26:05.666Z,97353.67
2018-12-09T13:28:36.346Z,97365.66
2018-12-09T13:31:06.282Z,97364.27
2018-12-09T13:33:36.227Z,97367.17
2018-12-09T13:36:06.282Z,97370.46
2018-12-09T13:38:36.180Z,97367.63
2018-12-09T13:41:06.170Z,97379.55
2018-12-09T13:43:36.236Z,97386.84
2018-12-09T13:46:06.508Z,97381.98
2018-12-09T13:48:37.265Z,97390.99
2018-12-09T13:51:07.368Z,97390.89
2018-12-09T13:53:37.487Z,97396.59
2018-12-09T13:56:07.398Z,97386.55
2018-12-09T13:58:37.344Z,97395.69
2018-12-09T14:01:07.427Z,97390.25
2018-12-09T14:03:37.276Z,97396.63
2018-12-09T14:06:07.301Z,97409.98
2018-12-09T14:08:37.889Z,97395.82
2018-12-09T14:11:07.897Z,97396.55
2018-12-09T14:13:37.826Z,97398.03
2018-12-09T14:16:07.783Z,97403.18
2018-12-09T14:18:38.448Z,97406.04
2018-12-09T14:21:08.467Z,97406.16
2018-12-09T14:23:38.366Z,97410.08
2018-12-09T14:26:08.407Z,97408.84
2018-12-09T14:28:38.407Z,97423.48
2018-12-09T14:31:08.328Z,97422.48
2018-12-09T14:33:38.412Z,97416.08
2018-12-09T14:36:08.842Z,97420.48
2018-12-09T14:38:38.822Z,97421.51
2018-12-09T14:41:08.817Z,97421.73
2018-12-09T14:43:38.927Z,97418.77
2018-12-09T14:46:08.897Z,97416.54
2018-12-09T14:48:38.837Z,97422.30
2018-12-09T14:51:08.777Z,97412.52
2018-12-09T14:53:38.777Z,97424.87
2018-12-09T14:56:08.816Z,97418.17
2018-12-09T14:58:38.751Z,97414.09
2018-12-09T15:01:08.817Z,97411.91
2018-12-09T15:03:38.937Z,97420.84
2018-12-09T15:06:08.832Z,97413.42
2018-12-09T15:08:38.860Z,97412.20
2018-12-09T15:11:09.435Z,97412.53
2018-12-09T15:13:39.505Z,97417.16
2018-12-09T15:16:10.148Z,97426.54
2018-12-09T15:18:39.998Z,97433.45
2018-12-09T15:21:09.977Z,97420.02
2018-12-09T15:23:39.850Z,97431.36
2018-12-09T15:26:09.917Z,97434.77
2018-12-09T15:28:39.927Z,97438.50
2018-12-09T15:31:10.452Z,97423.35
2018-12-09T15:33:40.372Z,97434.52
2018-12-09T15:36:10.560Z,97440.51
2018-12-09T15:38:40.583Z,97435.66
2018-12-09T15:41:10.497Z,97450.36
2018-12-09T15:43:40.446Z,97430.27
2018-12-09T15:46:10.469Z,97451.50
2018-12-09T15:48:40.437Z,97445.30
2018-12-09T15:51:10.568Z,97453.72
2018-12-09T15:53:40.688Z,97458.08
2018-12-09T15:56:11.406Z,97463.17
2018-12-09T15:58:41.463Z,97463.17
2018-12-09T16:03:57.128Z,97468.75
2018-12-09T16:06:27.053Z,97476.03
2018-12-09T16:08:56.998Z,97473.30
2018-12-09T16:11:26.889Z,97469.84
2018-12-09T16:13:56.888Z,97475.90
2018-12-09T16:16:26.817Z,97474.56
2018-12-09T16:18:56.818Z,97481.22
2018-12-09T16:21:26.927Z,97479.27
2018-12-09T16:23:56.932Z,97482.36
2018-12-09T16:26:27.640Z,97490.02
2018-12-09T16:28:57.597Z,97489.67
2018-12-09T16:31:27.707Z,97491.47
2018-12-09T16:33:59.006Z,97502.55
2018-12-09T16:36:29.062Z,97498.91
2018-12-09T16:38:58.937Z,97509.97
2018-12-09T16:41:31.663Z,97517.75
2018-12-09T16:44:02.331Z,97512.15
2018-12-09T16:46:33.344Z,97520.31
2018-12-09T16:49:03.998Z,97519.86
2018-12-09T16:51:37.897Z,97529.90
2018-12-09T16:54:07.988Z,97531.13
2018-12-09T16:56:38.601Z,97540.79
2018-12-09T16:59:09.200Z,97545.92
2018-12-09T17:01:39.162Z,97547.76
2018-12-09T17:04:09.153Z,97556.63
2018-12-09T17:06:40.833Z,97560.69
2018-12-09T17:09:11.112Z,97573.13
2018-12-09T17:11:42.026Z,97574.42
2018-12-09T17:14:12.071Z,97569.95
2018-12-09T17:16:47.140Z,97584.01
2018-12-09T17:19:17.088Z,97579.47
2018-12-09T17:21:47.172Z,97589.41
2018-12-09T17:24:21.062Z,97594.13
2018-12-09T17:26:51.027Z,97599.13
2018-12-09T17:29:20.997Z,97594.95
2018-12-09T17:31:51.728Z,97598.34
2018-12-09T17:34:21.848Z,97600.55
2018-12-09T17:36:58.829Z,97610.63
2018-12-09T17:39:29.668Z,97613.33
2018-12-09T17:42:00.217Z,97620.83
2018-12-09T17:44:30.331Z,97623.20
2018-12-09T17:47:03.371Z,97623.40
2018-12-09T17:49:33.362Z,97613.66
2018-12-09T17:52:03.415Z,97622.31
2018-12-09T17:54:33.472Z,97618.37
2018-12-09T17:57:07.548Z,97627.55
2018-12-09T17:59:37.566Z,97621.98
2018-12-09T18:02:09.663Z,97644.77
2018-12-09T18:04:39.747Z,97644.52
2018-12-09T18:07:09.702Z,97645.82
2018-12-09T18:09:43.092Z,97646.83
2018-12-09T18:12:13.067Z,97640.67
2018-12-09T18:14:46.161Z,97654.39
2018-12-09T18:17:19.467Z,97645.33
2018-12-09T18:19:54.591Z,97652.30
2018-12-09T18:22:25.517Z,97654.20
2018-12-09T18:24:55.578Z,97646.50
2018-12-09T18:27:26.349Z,97643.05
2018-12-09T18:29:56.257Z,97650.54
2018-12-09T18:32:29.677Z,97655.33
2018-12-09T18:35:02.798Z,97651.38
2018-12-09T18:37:35.797Z,97662.66
2018-12-09T18:40:07.381Z,97662.31
2018-12-09T18:42:37.366Z,97667.66
2018-12-09T18:45:08.662Z,97674.34
2018-12-09T18:47:43.592Z,97674.47
2018-12-09T18:50:13.707Z,97672.94
2018-12-09T18:52:46.632Z,97679.67
2018-12-09T18:55:18.969Z,97685.72
2018-12-09T18:57:50.317Z,97690.77
2018-12-09T19:00:20.536Z,97688.20
2018-12-09T19:02:57.578Z,97698.66
2018-12-09T19:05:32.964Z,97699.84
2018-12-09T19:08:04.039Z,97690.95
2018-12-09T19:10:39.162Z,97696.23
2018-12-09T19:13:13.320Z,97690.95
2018-12-09T19:15:43.451Z,97694.31
2018-12-09T19:18:13.470Z,97696.98
2018-12-09T19:20:44.380Z,97700.78
2018-12-09T19:23:17.487Z,97700.70
2018-12-09T19:25:52.832Z,97712.25
2018-12-09T19:28:23.747Z,97712.92
2018-12-09T19:30:54.423Z,97709.50
2018-12-09T19:33:25.571Z,97719.06
2018-12-09T19:35:59.712Z,97719.06
2018-12-09T19:38:30.488Z,97724.28
2018-12-09T19:41:00.620Z,97724.28
2018-12-09T19:43:30.682Z,97737.48
2018-12-09T19:46:01.371Z,97736.52
2018-12-09T19:48:35.257Z,97737.48
2018-12-09T19:51:11.357Z,97740.83
2018-12-09T19:53:42.393Z,97743.41
2018-12-09T19:56:19.318Z,97745.97
2018-12-09T19:58:53.658Z,97742.19
2018-12-09T20:01:26.843Z,97750.64
2018-12-09T20:03:57.797Z,97752.32
2018-12-09T20:06:31.593Z,97751.92
2018-12-09T20:09:04.702Z,97752.64
2018-12-09T20:11:34.787Z,97749.82
2018-12-09T20:14:09.519Z,97751.61
2018-12-09T20:16:42.607Z,97760.56
2018-12-09T20:19:13.557Z,97767.63
2018-12-09T20:21:44.344Z,97761.92
2018-12-09T20:26:59.227Z,97751.52
2018-12-09T20:29:34.307Z,97759.71
2018-12-09T20:32:04.873Z,97765.31
2018-12-09T20:34:35.237Z,97753.69
2018-12-09T20:37:09.142Z,97757.54
2018-12-09T20:39:39.779Z,97767.55
2018-12-09T20:42:09.887Z,97772.54
2018-12-09T20:44:40.010Z,97767.87
2018-12-09T20:47:14.021Z,97770.05
2018-12-09T20:49:46.132Z,97763.63
2018-12-09T20:52:19.012Z,97760.18
2018-12-09T20:54:49.836Z,97767.37
2018-12-09T20:57:23.190Z,97767.20
2018-12-09T20:59:56.787Z,97775.08
2018-12-09T21:02:28.575Z,97761.14
2018-12-09T21:05:00.164Z,97768.66
2018-12-09T21:07:31.239Z,97773.19
2018-12-09T21:10:01.187Z,97779.17
2018-12-09T21:12:31.268Z,97781.34
2018-12-09T21:15:01.218Z,97779.25
2018-12-09T21:17:31.407Z,97791.04
2018-12-09T21:20:03.171Z,97778.86
2018-12-09T21:22:33.121Z,97781.42
2018-12-09T21:25:06.371Z,97780.39
2018-12-09T21:27:36.378Z,97784.95
2018-12-09T21:30:06.993Z,97779.25
2018-12-09T21:32:37.038Z,97787.69
2018-12-09T21:35:09.036Z,97792.25
2018-12-09T21:37:39.002Z,97785.34
2018-12-09T21:40:09.205Z,97782.34
2018-12-09T21:42:39.449Z,97793.75
2018-12-09T21:45:09.468Z,97786.88
2018-12-09T21:47:39.367Z,97796.42
2018-12-09T21:50:09.807Z,97802.66
2018-12-09T21:52:39.785Z,97807.33
2018-12-09T21:55:09.797Z,97816.00
2018-12-09T21:57:39.742Z,97813.97
2018-12-09T22:00:09.902Z,97818.85
2018-12-09T22:02:39.842Z,97813.00
2018-12-09T22:05:09.886Z,97813.08
2018-12-09T22:07:40.018Z,97826.48
2018-12-09T22:10:10.097Z,97825.20
2018-12-09T22:12:40.996Z,97830.23
2018-12-09T22:15:11.291Z,97836.00
2018-12-09T22:17:41.198Z,97833.33
2018-12-09T22:20:11.208Z,97834.08
2018-12-09T22:22:41.126Z,97839.92
2018-12-09T22:25:11.031Z,97847.41
2018-12-09T22:27:40.946Z,97856.72
2018-12-09T22:30:11.078Z,97849.30
2018-12-09T22:32:40.975Z,97857.00
2018-12-09T22:35:10.972Z,97852.66
2018-12-09T22:37:40.906Z,97857.97
2018-12-09T22:40:10.820Z,97864.00
2018-12-09T22:42:40.936Z,97875.16
2018-12-09T22:45:11.000Z,97861.18
2018-12-09T22:47:41.141Z,97873.20
2018-12-09T22:50:11.120Z,97869.70
2018-12-09T22:52:41.207Z,97882.19
2018-12-09T22:55:11.215Z,97882.36
2018-12-09T22:57:41.191Z,97879.08
2018-12-09T23:00:22.386Z,97901.61
2018-12-09T23:02:56.836Z,97890.48
2018-12-09T23:05:26.755Z,97900.65
2018-12-09T23:07:57.060Z,97897.08
2018-12-09T23:10:27.100Z,97890.37
2018-12-09T23:12:57.194Z,97900.75
2018-12-09T23:15:27.060Z,97896.80
2018-12-09T23:17:57.021Z,97901.71
2018-12-09T23:20:27.079Z,97901.64
2018-12-09T23:22:57.050Z,97896.33
2018-12-09T23:25:27.032Z,97901.39
2018-12-09T23:27:56.986Z,97894.23
2018-12-09T23:30:27.001Z,97897.77
2018-12-09T23:32:57.010Z,97895.20
2018-12-09T23:35:26.927Z,97892.48
2018-12-09T23:37:57.056Z,97901.88
2018-12-09T23:40:26.950Z,97906.13
2018-12-09T23:42:56.760Z,97907.26
2018-12-09T23:45:26.724Z,97910.14
2018-12-09T23:47:56.690Z,97910.14
2018-12-09T23:50:26.826Z,97924.26
2018-12-09T23:52:56.709Z,97922.91
2018-12-09T23:55:26.746Z,97912.70
2018-12-09T23:57:56.639Z,97913.53
